createdAt,value
2018-12-30T00:02:42.460Z,19.73
2018-12-30T00:07:50.323Z,14.70
2018-12-30T00:12:57.434Z,16.40
2018-12-30T00:18:04.337Z,13.17
2018-12-30T00:23:10.733Z,15.17
2018-12-30T00:28:16.889Z,22.00
2018-12-30T00:33:23.236Z,15.20
2018-12-30T00:38:29.309Z,15.80
2018-12-30T00:43:34.755Z,17.40
2018-12-30T00:48:41.784Z,18.17
2018-12-30T00:53:48.081Z,19.03
2018-12-30T00:59:04.031Z,13.60
2018-12-30T01:04:11.409Z,17.07
2018-12-30T01:09:17.381Z,12.83
2018-12-30T01:14:23.653Z,27.53
2018-12-30T01:19:29.580Z,12.53
2018-12-30T01:24:35.751Z,18.07
2018-12-30T01:29:42.487Z,18.67
2018-12-30T01:34:49.257Z,15.53
2018-12-30T01:39:56.124Z,14.53
2018-12-30T01:45:03.928Z,18.50
2018-12-30T01:50:10.973Z,12.67
2018-12-30T01:55:18.353Z,13.17
2018-12-30T02:00:25.709Z,14.27
2018-12-30T02:05:33.770Z,19.80
2018-12-30T02:10:40.319Z,16.47
2018-12-30T02:15:46.749Z,18.77
2018-12-30T02:20:53.277Z,17.10
2018-12-30T02:26:00.777Z,16.60
2018-12-30T02:31:08.235Z,15.70
2018-12-30T02:36:16.130Z,10.70
2018-12-30T02:41:21.989Z,14.93
2018-12-30T02:46:29.792Z,10.00
2018-12-30T02:51:35.034Z,10.00
2018-12-30T02:56:41.281Z,15.47
2018-12-30T03:01:47.231Z,15.07
2018-12-30T03:06:52.515Z,12.70
2018-12-30T03:11:59.537Z,16.73
2018-12-30T03:17:06.006Z,13.47
2018-12-30T03:22:11.308Z,14.27
2018-12-30T03:27:17.319Z,10.93
2018-12-30T03:32:23.142Z,15.43
2018-12-30T03:37:30.023Z,13.50
2018-12-30T03:42:36.830Z,13.57
2018-12-30T03:47:45.518Z,13.97
2018-12-30T03:52:51.338Z,13.43
2018-12-30T03:57:57.655Z,15.27
2018-12-30T04:03:03.083Z,13.87
2018-12-30T04:08:08.932Z,16.27
2018-12-30T04:13:16.003Z,9.90
2018-12-30T04:18:22.804Z,16.47
2018-12-30T04:23:29.950Z,15.90
2018-12-30T04:28:36.354Z,16.37
2018-12-30T04:33:42.802Z,16.30
2018-12-30T04:38:49.997Z,12.53
2018-12-30T04:43:57.289Z,10.93
2018-12-30T04:49:04.025Z,13.60
2018-12-30T04:54:10.125Z,13.40
2018-12-30T04:59:16.436Z,13.97
2018-12-30T05:04:22.745Z,13.40
2018-12-30T05:09:30.084Z,11.83
2018-12-30T05:14:36.464Z,10.83
2018-12-30T05:19:42.897Z,13.77
2018-12-30T05:24:49.527Z,15.13
2018-12-30T05:30:02.569Z,14.27
2018-12-30T05:35:09.058Z,19.20
2018-12-30T05:40:16.659Z,10.63
2018-12-30T05:45:22.886Z,18.13
2018-12-30T05:50:29.221Z,16.70
2018-12-30T05:55:36.720Z,11.53
2018-12-30T06:00:43.085Z,12.40
2018-12-30T06:05:49.527Z,12.03
2018-12-30T06:10:56.277Z,12.53
2018-12-30T06:16:02.520Z,13.53
2018-12-30T06:21:08.941Z,13.17
2018-12-30T06:26:15.160Z,16.33
2018-12-30T06:31:23.843Z,17.47
2018-12-30T06:36:30.670Z,12.43
2018-12-30T06:41:36.495Z,14.50
2018-12-30T06:46:42.838Z,11.20
2018-12-30T06:51:49.201Z,17.47
2018-12-30T06:56:55.618Z,16.27
2018-12-30T07:02:01.434Z,13.37
2018-12-30T07:07:07.718Z,14.00
2018-12-30T07:12:13.898Z,15.70
2018-12-30T07:17:19.461Z,14.23
2018-12-30T07:22:26.004Z,17.10
2018-12-30T07:27:35.786Z,16.07
2018-12-30T07:32:41.807Z,11.50
2018-12-30T07:37:48.153Z,12.67
2018-12-30T07:42:57.526Z,21.43
2018-12-30T07:48:03.656Z,18.27
2018-12-30T07:53:13.936Z,16.93
2018-12-30T07:58:21.798Z,14.70
2018-12-30T08:03:29.173Z,14.00
2018-12-30T08:08:57.566Z,11.77
2018-12-30T08:14:05.340Z,17.93
2018-12-30T08:19:12.280Z,15.13
2018-12-30T08:24:18.131Z,12.00
2018-12-30T08:29:23.572Z,12.33
2018-12-30T08:34:29.208Z,14.13
2018-12-30T08:39:35.673Z,17.37
2018-12-30T08:44:42.008Z,14.70
2018-12-30T08:49:49.534Z,17.07
2018-12-30T08:54:55.312Z,14.43
2018-12-30T09:00:01.698Z,12.07
2018-12-30T09:05:07.850Z,7.57
2018-12-30T09:10:13.445Z,18.33
2018-12-30T09:15:19.635Z,13.73
2018-12-30T09:20:25.934Z,13.20
2018-12-30T09:25:32.945Z,12.13
2018-12-30T09:30:39.494Z,10.97
2018-12-30T09:35:45.757Z,18.23
2018-12-30T09:40:52.020Z,11.47
2018-12-30T09:46:01.315Z,8.53
2018-12-30T09:51:07.790Z,10.57
2018-12-30T09:56:15.303Z,9.60
2018-12-30T10:02:17.928Z,9.37
2018-12-30T10:07:24.621Z,11.27
2018-12-30T10:12:31.387Z,8.90
2018-12-30T10:17:37.420Z,7.97
2018-12-30T10:22:43.518Z,12.20
2018-12-30T10:27:49.113Z,7.63
2018-12-30T10:32:55.762Z,9.60
2018-12-30T10:38:02.225Z,6.47
2018-12-30T10:43:16.927Z,7.73
2018-12-30T10:48:23.677Z,10.03
2018-12-30T10:53:31.994Z,9.17
2018-12-30T10:58:38.585Z,18.60
2018-12-30T11:03:43.748Z,8.63
2018-12-30T11:08:50.182Z,13.57
2018-12-30T11:13:55.924Z,9.73
2018-12-30T11:19:01.776Z,8.53
2018-12-30T11:24:08.781Z,8.70
2018-12-30T11:29:15.312Z,9.00
2018-12-30T11:34:22.678Z,9.37
2018-12-30T11:39:29.122Z,5.47
2018-12-30T11:44:35.021Z,12.23
2018-12-30T11:49:41.502Z,9.00
2018-12-30T11:54:49.697Z,10.03
2018-12-30T12:00:10.309Z,9.80
2018-12-30T12:05:24.061Z,11.33
2018-12-30T12:10:29.765Z,11.77
2018-12-30T12:15:38.390Z,11.47
2018-12-30T12:20:44.937Z,12.97
2018-12-30T12:25:52.190Z,15.00
2018-12-30T12:30:59.425Z,8.83
2018-12-30T12:36:06.737Z,13.00
2018-12-30T12:41:13.249Z,11.73
2018-12-30T12:46:18.838Z,11.23
2018-12-30T12:51:25.200Z,9.93
2018-12-30T12:56:30.849Z,10.57
2018-12-30T13:01:36.817Z,7.90
2018-12-30T13:06:42.325Z,6.97
2018-12-30T13:11:50.465Z,8.77
2018-12-30T13:16:58.726Z,8.80
2018-12-30T13:22:04.136Z,11.93
2018-12-30T13:27:09.716Z,11.27
2018-12-30T13:32:15.596Z,11.67
2018-12-30T13:37:31.134Z,8.27
2018-12-30T13:42:40.536Z,10.63
2018-12-30T13:47:47.429Z,16.00
2018-12-30T13:52:53.056Z,8.13
2018-12-30T13:57:59.679Z,11.87
2018-12-30T14:03:06.985Z,13.80
2018-12-30T14:08:13.520Z,7.77
2018-12-30T14:13:19.433Z,10.03
2018-12-30T14:18:25.834Z,9.70
2018-12-30T14:23:34.676Z,7.80
2018-12-30T14:28:43.285Z,10.53
2018-12-30T14:33:50.187Z,9.30
2018-12-30T14:38:58.283Z,12.73
2018-12-30T14:44:04.447Z,6.00
2018-12-30T14:49:11.325Z,11.43
2018-12-30T14:54:17.253Z,9.00
2018-12-30T14:59:24.122Z,12.10
2018-12-30T15:04:32.012Z,12.80
2018-12-30T15:09:42.474Z,14.67
2018-12-30T15:14:48.602Z,15.53
2018-12-30T15:19:55.254Z,15.30
2018-12-30T15:25:01.404Z,14.87
2018-12-30T15:30:09.318Z,9.60
2018-12-30T15:35:16.187Z,12.07
2018-12-30T15:40:22.790Z,11.23
2018-12-30T15:45:31.744Z,13.83
2018-12-30T15:50:38.530Z,11.33
2018-12-30T15:55:46.833Z,14.10
2018-12-30T16:00:53.524Z,12.63
2018-12-30T16:05:59.074Z,15.97
2018-12-30T16:11:04.909Z,14.80
2018-12-30T16:16:13.350Z,12.70
2018-12-30T16:21:19.369Z,12.00
2018-12-30T16:26:27.390Z,14.37
2018-12-30T16:31:34.510Z,16.57
2018-12-30T16:37:17.784Z,14.77
2018-12-30T16:42:24.127Z,12.83
2018-12-30T16:47:30.545Z,11.87
2018-12-30T16:52:36.075Z,15.80
2018-12-30T16:57:43.634Z,12.83
2018-12-30T17:02:49.570Z,17.17
2018-12-30T17:07:56.012Z,16.10
2018-12-30T17:13:02.477Z,17.33
2018-12-30T17:18:08.324Z,20.40
2018-12-30T17:23:15.343Z,21.23
2018-12-30T17:28:20.721Z,17.43
2018-12-30T17:33:26.893Z,20.30
2018-12-30T17:38:32.848Z,22.93
2018-12-30T17:43:41.654Z,17.17
2018-12-30T17:48:48.193Z,21.30
2018-12-30T17:53:55.065Z,19.20
2018-12-30T17:59:00.988Z,20.77
2018-12-30T18:04:07.748Z,22.23
2018-12-30T18:09:13.581Z,21.53
2018-12-30T18:14:20.408Z,23.03
2018-12-30T18:19:26.610Z,21.73
2018-12-30T18:24:32.776Z,24.30
2018-12-30T18:29:40.058Z,24.00
2018-12-30T18:34:46.345Z,24.17
2018-12-30T18:39:52.270Z,24.30
2018-12-30T18:44:57.965Z,28.10
2018-12-30T18:50:03.657Z,28.00
2018-12-30T18:55:10.185Z,28.80
2018-12-30T19:00:17.111Z,26.40
2018-12-30T19:05:22.679Z,28.27
2018-12-30T19:10:28.142Z,27.67
2018-12-30T19:15:34.102Z,27.90
2018-12-30T19:20:45.786Z,31.47
2018-12-30T19:26:01.047Z,29.90
2018-12-30T19:31:02.227Z,30.10
2018-12-30T19:36:08.153Z,28.37
2018-12-30T19:41:13.972Z,32.73
2018-12-30T19:46:21.297Z,26.30
2018-12-30T19:51:27.405Z,25.90
2018-12-30T19:56:34.148Z,24.80
2018-12-30T20:01:40.102Z,28.03
2018-12-30T20:06:46.709Z,28.87
2018-12-30T20:11:53.421Z,28.43
2018-12-30T20:17:02.058Z,29.80
2018-12-30T20:22:08.141Z,29.67
2018-12-30T20:27:14.417Z,30.93
2018-12-30T20:32:20.628Z,30.00
2018-12-30T20:37:27.599Z,30.33
2018-12-30T20:42:33.480Z,32.73
2018-12-30T20:47:40.658Z,33.87
2018-12-30T20:52:45.750Z,35.00
2018-12-30T20:57:52.621Z,34.40
2018-12-30T21:02:59.671Z,33.40
2018-12-30T21:08:07.158Z,35.30
2018-12-30T21:13:12.995Z,35.10
2018-12-30T21:18:19.293Z,34.53
2018-12-30T21:23:25.420Z,33.80
2018-12-30T21:28:31.303Z,34.77
2018-12-30T21:33:38.974Z,36.73
2018-12-30T21:38:45.307Z,36.30
2018-12-30T21:43:53.005Z,38.53
2018-12-30T21:48:58.635Z,38.67
2018-12-30T21:54:05.100Z,33.53
2018-12-30T21:59:11.666Z,36.13
2018-12-30T22:04:17.239Z,30.83
2018-12-30T22:09:23.894Z,29.60
2018-12-30T22:14:29.470Z,27.73
2018-12-30T22:19:34.927Z,28.00
2018-12-30T22:24:41.454Z,28.83
2018-12-30T22:29:46.925Z,28.67
2018-12-30T22:34:54.285Z,26.57
2018-12-30T22:40:00.181Z,23.40
2018-12-30T22:45:06.965Z,23.37
2018-12-30T22:50:12.880Z,22.33
2018-12-30T22:55:19.118Z,22.97
2018-12-30T23:00:43.322Z,22.73
2018-12-30T23:05:50.028Z,20.83
2018-12-30T23:10:56.958Z,19.90
2018-12-30T23:16:04.497Z,18.80
2018-12-30T23:21:11.104Z,17.67
2018-12-30T23:26:17.457Z,16.60
2018-12-30T23:31:22.755Z,18.70
2018-12-30T23:36:29.449Z,17.27
2018-12-30T23:41:35.501Z,17.07
2018-12-30T23:46:42.137Z,18.03
2018-12-30T23:51:47.714Z,20.30
2018-12-30T23:56:53.994Z,20.13
